Time;durP1;ratioP1;P1;durP2;ratioP2;P2;SDS_P1;SDS_P2;PMS_P1;PMS_P2;Temp;Humidity;BMP_temperature;BMP_pressure;BME280_temperature;BME280_humidity;BME280_pressure;Samples;Min_cycle;Max_cycle;Signal;HPM_P1;HPM_P2
2022/04/13 00:02:16;;;;;;;0.50;0.50;;;;;;;17.03;47.12;100598.66;5236791;28;20105;-78
2022/04/13 00:04:47;;;;;;;0.80;0.80;;;;;;;16.98;47.08;100597.09;5232285;28;20047;-79
2022/04/13 00:07:17;;;;;;;0.40;0.40;;;;;;;16.97;47.30;100594.53;5257025;28;20036;-78
2022/04/13 00:09:48;;;;;;;0.32;0.32;;;;;;;16.89;47.62;100597.59;5276539;27;20515;-78
2022/04/13 00:12:18;;;;;;;0.45;0.45;;;;;;;16.90;47.42;100593.97;5245099;28;20595;-78
2022/04/13 00:14:50;;;;;;;18.73;0.88;;;;;;;16.83;47.59;100592.63;5255262;27;20043;-77
2022/04/13 00:17:22;;;;;;;0.68;0.47;;;;;;;16.83;47.53;100592.63;5240364;28;20058;-78
2022/04/13 00:19:52;;;;;;;0.55;0.55;;;;;;;16.81;47.27;100594.53;5240082;28;20190;-77
2022/04/13 00:22:23;;;;;;;0.50;0.50;;;;;;;16.78;47.58;100600.81;5232876;28;20119;-78
2022/04/13 00:24:53;;;;;;;0.40;0.40;;;;;;;16.79;47.60;100599.03;5267212;28;20035;-79
2022/04/13 00:27:24;;;;;;;0.38;0.38;;;;;;;16.79;47.62;100607.84;5274480;27;20040;-78
2022/04/13 00:29:54;;;;;;;0.40;0.40;;;;;;;16.74;47.80;100604.59;5239766;28;20070;-79
2022/04/13 00:32:25;;;;;;;2.92;1.35;;;;;;;16.66;47.83;100596.22;5237176;28;20035;-78
2022/04/13 00:34:57;;;;;;;0.50;0.50;;;;;;;16.65;48.08;100605.94;5254552;28;20500;-78
2022/04/13 00:37:31;;;;;;;1.13;1.00;;;;;;;16.64;47.90;100604.25;5258934;28;20092;-78
2022/04/13 00:40:02;;;;;;;0.30;0.30;;;;;;;16.64;47.93;100608.69;5238977;28;20032;-78
2022/04/13 00:42:33;;;;;;;0.38;0.38;;;;;;;16.67;48.19;100609.38;5237447;28;20101;-78
2022/04/13 00:45:04;;;;;;;0.30;0.30;;;;;;;16.64;48.22;100614.84;5264097;28;20035;-78
2022/04/13 00:47:39;;;;;;;0.25;0.25;;;;;;;16.59;48.15;100610.72;5256799;27;20038;-79
2022/04/13 00:50:10;;;;;;;1.20;1.10;;;;;;;16.56;48.60;100609.09;5238274;28;20051;-78
2022/04/13 00:52:46;;;;;;;0.60;0.60;;;;;;;16.55;48.53;100607.41;5271099;27;20036;-78
2022/04/13 00:55:19;;;;;;;0.60;0.60;;;;;;;16.47;48.33;100607.78;5257234;28;20044;-78
2022/04/13 00:57:50;;;;;;;0.50;0.50;;;;;;;16.43;48.37;100611.56;5250948;27;20053;-78
2022/04/13 01:00:21;;;;;;;1.48;1.02;;;;;;;16.41;48.56;100607.25;5277439;27;20032;-78
2022/04/13 01:02:52;;;;;;;6.60;2.38;;;;;;;16.42;48.43;100614.28;5238758;28;20042;-78
2022/04/13 01:05:23;;;;;;;0.73;0.73;;;;;;;16.39;48.44;100617.94;5234831;28;20040;-78
2022/04/13 01:07:54;;;;;;;0.40;0.40;;;;;;;16.39;48.85;100620.59;5238651;28;20057;-79
2022/04/13 01:10:26;;;;;;;2.90;2.58;;;;;;;16.29;48.72;100614.06;5278550;28;20048;-79
2022/04/13 01:12:56;;;;;;;0.60;0.60;;;;;;;16.31;48.82;100618.38;5267923;28;20032;-79
2022/04/13 01:15:27;;;;;;;12.80;1.00;;;;;;;16.33;48.86;100627.06;5263486;27;20051;-78
2022/04/13 01:17:57;;;;;;;0.40;0.40;;;;;;;16.29;49.02;100625.53;5257968;28;20528;-78
2022/04/13 01:20:30;;;;;;;1.02;0.93;;;;;;;16.28;48.92;100626.47;5279174;27;20099;-79
2022/04/13 01:23:01;;;;;;;0.68;0.68;;;;;;;16.26;48.98;100628.31;5277672;28;20047;-79
2022/04/13 01:25:32;;;;;;;0.55;0.55;;;;;;;16.20;49.15;100634.78;5273068;27;20039;-78
2022/04/13 01:28:03;;;;;;;0.60;0.60;;;;;;;16.20;48.70;100637.44;5233552;28;20044;-78
2022/04/13 01:30:33;;;;;;;0.70;0.70;;;;;;;16.20;49.20;100639.25;5244551;28;20344;-78
2022/04/13 01:33:04;;;;;;;1.10;1.08;;;;;;;16.15;49.17;100636.81;5240847;28;20031;-78
2022/04/13 01:35:34;;;;;;;3.33;0.55;;;;;;;16.13;49.06;100638.69;5236165;27;20040;-78
2022/04/13 01:38:06;;;;;;;0.77;0.77;;;;;;;16.08;49.11;100640.72;5248685;28;20041;-78
2022/04/13 01:40:37;;;;;;;0.77;0.77;;;;;;;15.99;49.50;100642.03;5245488;28;20035;-78
2022/04/13 01:43:07;;;;;;;0.93;0.90;;;;;;;16.02;49.24;100639.25;5274589;28;20043;-79
2022/04/13 01:45:37;;;;;;;0.70;0.70;;;;;;;16.03;48.91;100651.56;5247933;28;20036;-78
2022/04/13 01:48:09;;;;;;;1.75;1.52;;;;;;;16.07;49.22;100657.53;5270540;27;20039;-78
2022/04/13 01:50:40;;;;;;;0.30;0.30;;;;;;;16.06;49.37;100661.13;5268405;27;20124;-78
2022/04/13 01:53:11;;;;;;;0.50;0.50;;;;;;;16.04;49.21;100658.56;5235593;28;20128;-78
2022/04/13 01:55:41;;;;;;;0.60;0.60;;;;;;;15.99;49.28;100659.72;5246904;28;20039;-78
2022/04/13 01:58:12;;;;;;;4.32;1.63;;;;;;;16.01;49.48;100657.88;5257162;28;20030;-78
2022/04/13 02:00:42;;;;;;;1.70;1.60;;;;;;;16.08;49.64;100655.75;5240445;27;20471;-78
2022/04/13 02:03:13;;;;;;;1.08;1.08;;;;;;;16.05;49.32;100659.41;5250767;28;20036;-78
2022/04/13 02:05:43;;;;;;;3.20;1.25;;;;;;;16.03;49.47;100664.78;5274346;27;20039;-78
2022/04/13 02:08:14;;;;;;;3.05;0.90;;;;;;;15.96;49.42;100660.75;5249707;28;20040;-78
2022/04/13 02:10:45;;;;;;;2.30;0.88;;;;;;;15.94;50.00;100667.06;5238129;28;20293;-78
2022/04/13 02:13:16;;;;;;;0.60;0.60;;;;;;;15.93;49.86;100665.34;5245714;28;20034;-78
2022/04/13 02:15:48;;;;;;;0.30;0.30;;;;;;;15.93;49.55;100666.19;5249326;27;20039;-79
2022/04/13 02:18:19;;;;;;;0.50;0.50;;;;;;;15.88;50.08;100676.16;5270960;27;20035;-78
2022/04/13 02:20:49;;;;;;;0.77;0.77;;;;;;;15.88;49.85;100678.78;5236328;28;20638;-78
2022/04/13 02:23:20;;;;;;;0.30;0.30;;;;;;;15.82;50.14;100679.06;5260170;28;20256;-78
2022/04/13 02:25:50;;;;;;;0.30;0.30;;;;;;;15.84;49.78;100682.50;5237560;27;20070;-78
2022/04/13 02:28:20;;;;;;;0.98;0.73;;;;;;;15.80;49.61;100680.94;5259416;28;20019;-78
2022/04/13 02:30:51;;;;;;;1.92;1.40;;;;;;;15.82;49.96;100690.50;5242670;28;20042;-78
2022/04/13 02:33:25;;;;;;;0.65;0.65;;;;;;;15.80;50.22;100691.50;5253144;28;20372;-78
2022/04/13 02:35:55;;;;;;;0.20;0.20;;;;;;;15.77;49.91;100689.00;5256475;28;20523;-78
2022/04/13 02:38:26;;;;;;;0.30;0.30;;;;;;;15.77;50.18;100694.28;5269959;28;20070;-77
2022/04/13 02:40:56;;;;;;;0.63;0.63;;;;;;;15.71;50.27;100696.31;5245539;28;20036;-78
2022/04/13 02:43:28;;;;;;;0.57;0.57;;;;;;;15.66;50.14;100694.81;5260719;28;20047;-77
2022/04/13 02:45:58;;;;;;;1.15;1.05;;;;;;;15.65;49.95;100693.97;5269145;28;20036;-77
2022/04/13 02:48:28;;;;;;;0.88;0.88;;;;;;;15.57;50.20;100696.16;5238729;28;20028;-78
2022/04/13 02:50:59;;;;;;;0.50;0.50;;;;;;;15.55;50.22;100695.34;5239047;28;20492;-77
2022/04/13 02:53:30;;;;;;;1.17;0.90;;;;;;;15.46;50.70;100698.44;5238896;28;20083;-77
2022/04/13 02:56:00;;;;;;;0.30;0.30;;;;;;;15.42;50.73;100705.66;5252675;28;20040;-77
2022/04/13 02:58:31;;;;;;;1.83;0.93;;;;;;;15.43;50.32;100702.09;5273562;28;20031;-77
2022/04/13 03:01:03;;;;;;;0.90;0.70;;;;;;;15.39;50.46;100701.38;5240809;28;20036;-77
2022/04/13 03:03:35;;;;;;;2.40;1.55;;;;;;;15.33;50.72;100703.44;5268477;27;20070;-77
2022/04/13 03:06:05;;;;;;;3.20;1.60;;;;;;;15.29;50.66;100705.38;5274890;27;20119;-77
2022/04/13 03:08:36;;;;;;;0.35;0.35;;;;;;;15.30;50.91;100709.75;5278320;27;20408;-77
2022/04/13 03:11:07;;;;;;;0.30;0.30;;;;;;;15.32;50.87;100717.59;5244971;28;20492;-77
2022/04/13 03:13:38;;;;;;;0.32;0.32;;;;;;;15.16;51.29;100717.47;5242542;27;20039;-77
2022/04/13 03:16:08;;;;;;;1.83;1.73;;;;;;;15.18;50.92;100715.59;5254319;28;20055;-77
2022/04/13 03:18:39;;;;;;;0.38;0.38;;;;;;;15.19;51.04;100717.31;5276303;27;20115;-77
2022/04/13 03:21:09;;;;;;;0.60;0.60;;;;;;;15.19;51.09;100722.59;5267697;28;20175;-77
2022/04/13 03:23:40;;;;;;;0.60;0.60;;;;;;;15.20;51.06;100719.91;5241524;27;20138;-77
2022/04/13 03:26:10;;;;;;;0.93;0.80;;;;;;;15.22;50.82;100725.94;5241779;28;20105;-78
2022/04/13 03:28:41;;;;;;;0.40;0.40;;;;;;;15.22;51.21;100725.09;5246730;28;20028;-77
2022/04/13 03:31:11;;;;;;;0.65;0.65;;;;;;;15.26;51.47;100726.66;5249656;28;20336;-77
2022/04/13 03:33:42;;;;;;;0.75;0.75;;;;;;;15.21;51.13;100726.88;5272343;27;20544;-77
2022/04/13 03:36:13;;;;;;;0.90;0.77;;;;;;;15.23;51.30;100727.66;5240390;28;20027;-78
2022/04/13 03:38:43;;;;;;;0.30;0.30;;;;;;;15.22;51.11;100730.41;5254200;28;20538;-77
2022/04/13 03:41:14;;;;;;;0.57;0.57;;;;;;;15.18;51.04;100742.91;5241103;28;20036;-77
2022/04/13 03:43:44;;;;;;;0.20;0.20;;;;;;;15.20;51.34;100732.25;5241934;27;20034;-77
2022/04/13 03:46:15;;;;;;;0.70;0.70;;;;;;;15.16;51.49;100734.16;5250455;28;20040;-77
2022/04/13 03:48:47;;;;;;;0.68;0.68;;;;;;;15.13;51.34;100742.22;5262400;28;20165;-78
2022/04/13 03:51:18;;;;;;;0.98;0.73;;;;;;;15.13;51.65;100733.47;5252242;28;20036;-78
2022/04/13 03:53:48;;;;;;;6.18;1.27;;;;;;;15.15;51.56;100739.53;5240803;28;20059;-78
2022/04/13 03:56:19;;;;;;;0.63;0.63;;;;;;;15.11;51.72;100738.81;5251427;28;20035;-79
2022/04/13 03:58:49;;;;;;;0.63;0.63;;;;;;;15.09;51.80;100738.03;5257291;27;20058;-78
2022/04/13 04:01:21;;;;;;;0.47;0.47;;;;;;;15.03;51.73;100744.44;5254003;28;20131;-78
2022/04/13 04:03:51;;;;;;;0.63;0.63;;;;;;;15.04;51.68;100746.16;5241391;28;20062;-78
2022/04/13 04:06:23;;;;;;;0.32;0.32;;;;;;;15.06;51.66;100746.97;5250967;28;20036;-78
2022/04/13 04:08:54;;;;;;;0.30;0.30;;;;;;;15.04;51.84;100755.88;5257401;28;20055;-78
2022/04/13 04:11:24;;;;;;;0.47;0.47;;;;;;;15.04;51.85;100751.44;5254007;28;20028;-78
2022/04/13 04:13:55;;;;;;;0.40;0.40;;;;;;;15.05;51.91;100747.00;5247444;28;20028;-78
2022/04/13 04:16:26;;;;;;;0.32;0.32;;;;;;;15.01;51.91;100753.38;5251007;27;20027;-79
2022/04/13 04:18:56;;;;;;;10.05;1.77;;;;;;;14.99;52.32;100748.16;5254312;27;20421;-78
2022/04/13 04:21:27;;;;;;;1.63;1.25;;;;;;;15.01;52.64;100754.22;5263730;28;20028;-78
2022/04/13 04:23:57;;;;;;;0.45;0.45;;;;;;;14.94;52.75;100752.78;5275879;27;20036;-78
2022/04/13 04:26:28;;;;;;;11.77;2.10;;;;;;;15.06;53.41;100749.59;5255070;28;20051;-78
2022/04/13 04:28:58;;;;;;;2.00;0.93;;;;;;;15.06;53.25;100749.59;5237819;28;20040;-77
2022/04/13 04:34:19;;;;;;;6.32;1.75;;;;;;;14.77;56.17;100758.81;5276159;27;20063;-77
2022/04/13 04:36:50;;;;;;;0.30;0.30;;;;;;;14.87;55.10;100765.44;5278007;27;20036;-77
2022/04/13 04:39:20;;;;;;;0.55;0.45;;;;;;;14.90;54.26;100759.16;5253461;28;20065;-77
2022/04/13 04:41:52;;;;;;;2.67;1.80;;;;;;;14.89;53.59;100757.44;5257360;28;20161;-76
2022/04/13 04:44:22;;;;;;;0.40;0.40;;;;;;;14.90;53.14;100759.16;5256116;28;20032;-76
2022/04/13 04:46:55;;;;;;;1.25;1.25;;;;;;;14.88;53.90;100761.00;5251619;28;20057;-77
2022/04/13 04:49:26;;;;;;;2.80;0.95;;;;;;;14.84;53.86;100759.41;5251943;28;20101;-77
2022/04/13 04:51:56;;;;;;;2.35;0.85;;;;;;;14.91;53.67;100766.16;5269628;27;20036;-76
2022/04/13 04:54:27;;;;;;;4.07;2.00;;;;;;;14.90;54.25;100765.28;5272075;27;20380;-76
2022/04/13 04:56:57;;;;;;;1.42;1.38;;;;;;;14.92;53.72;100768.72;5237315;28;20024;-75
2022/04/13 04:59:28;;;;;;;2.47;2.28;;;;;;;14.89;53.57;100776.75;5257620;28;20035;-75
2022/04/13 05:01:58;;;;;;;4.18;1.70;;;;;;;14.98;53.34;100777.28;5238014;27;20043;-75
2022/04/13 05:04:29;;;;;;;3.83;2.78;;;;;;;14.99;53.38;100779.88;5255059;27;20377;-75
2022/04/13 05:07:01;;;;;;;1.38;1.33;;;;;;;15.02;53.48;100785.00;5248826;28;20036;-76
2022/04/13 05:09:32;;;;;;;4.43;2.63;;;;;;;14.99;53.59;100779.00;5270470;27;20034;-76
2022/04/13 05:12:02;;;;;;;2.22;1.55;;;;;;;14.99;53.59;100789.56;5255935;28;20205;-76
2022/04/13 05:14:33;;;;;;;1.92;1.83;;;;;;;15.03;53.66;100791.16;5245135;28;20476;-75
2022/04/13 05:17:03;;;;;;;1.85;1.15;;;;;;;15.05;53.59;100795.44;5273739;27;20086;-76
2022/04/13 05:19:34;;;;;;;3.92;3.38;;;;;;;15.05;53.73;100798.09;5255919;28;20287;-75
2022/04/13 05:22:04;;;;;;;1.42;1.35;;;;;;;15.02;53.51;100803.50;5245623;28;20040;-75
2022/04/13 05:24:35;;;;;;;1.55;1.45;;;;;;;14.97;53.78;100802.84;5249659;28;20047;-75
2022/04/13 05:27:07;;;;;;;2.45;2.13;;;;;;;14.91;53.68;100808.41;5247565;28;20032;-75
2022/04/13 05:29:38;;;;;;;2.30;1.23;;;;;;;14.94;53.77;100824.09;5245425;27;20035;-75
2022/04/13 05:32:08;;;;;;;6.07;3.75;;;;;;;14.90;53.79;100823.38;5254128;28;20078;-75
2022/04/13 05:34:40;;;;;;;1.55;1.20;;;;;;;14.94;53.77;100827.63;5274892;27;20050;-76
2022/04/13 05:37:11;;;;;;;0.40;0.40;;;;;;;14.89;54.11;100834.03;5271397;27;20032;-76
2022/04/13 05:39:41;;;;;;;4.85;1.52;;;;;;;14.97;54.19;100837.19;5250375;28;20040;-75
2022/04/13 05:42:12;;;;;;;1.27;1.20;;;;;;;14.92;54.05;100836.53;5248303;28;20040;-76
2022/04/13 05:44:45;;;;;;;0.57;0.57;;;;;;;14.93;54.21;100846.16;5254144;28;20047;-75
2022/04/13 05:47:15;;;;;;;1.35;1.25;;;;;;;14.92;53.88;100849.72;5253678;28;20603;-75
2022/04/13 05:49:46;;;;;;;1.17;1.17;;;;;;;14.91;54.11;100856.81;5270990;27;20130;-76
2022/04/13 05:52:16;;;;;;;1.10;0.88;;;;;;;14.97;54.11;100860.09;5250823;28;20040;-75
2022/04/13 05:54:47;;;;;;;5.75;2.67;;;;;;;15.01;54.13;100859.91;5254862;27;20068;-76
2022/04/13 05:57:17;;;;;;;0.68;0.68;;;;;;;14.98;54.41;100859.19;5234548;28;20032;-76
2022/04/13 05:59:48;;;;;;;0.55;0.55;;;;;;;14.91;54.11;100862.09;5268510;27;20062;-74
2022/04/13 06:02:18;;;;;;;7.72;2.05;;;;;;;14.87;55.25;100864.94;5241032;28;20032;-76
2022/04/13 06:04:49;;;;;;;1.98;1.88;;;;;;;14.94;54.51;100861.97;5253853;28;20058;-74
2022/04/13 06:07:19;;;;;;;0.45;0.38;;;;;;;14.86;55.86;100860.56;5274779;27;20048;-75
2022/04/13 06:09:50;;;;;;;5.68;2.95;;;;;;;14.77;55.52;100869.75;5267017;27;20081;-75
2022/04/13 06:12:24;;;;;;;2.47;1.27;;;;;;;14.89;55.15;100863.09;5248724;28;20036;-75
2022/04/13 06:15:04;;;;;;;5.80;3.58;;;;;;;15.00;54.72;100871.41;5247785;28;20513;-75
2022/04/13 06:17:39;;;;;;;0.65;0.65;;;;;;;15.02;54.80;100879.28;5241051;27;20353;-77
2022/04/13 06:20:10;;;;;;;1.30;1.17;;;;;;;15.06;54.84;100887.00;5237322;28;20031;-75
2022/04/13 06:22:42;;;;;;;1.38;1.00;;;;;;;15.02;54.81;100888.03;5278218;27;20040;-76
2022/04/13 06:25:13;;;;;;;1.63;1.50;;;;;;;15.05;54.97;100889.69;5249319;28;20051;-76
2022/04/13 06:27:46;;;;;;;2.63;2.42;;;;;;;14.99;55.50;100893.47;5247908;27;20301;-76
2022/04/13 06:30:19;;;;;;;0.82;0.82;;;;;;;15.08;55.56;100895.69;5233648;28;20036;-75
2022/04/13 06:32:50;;;;;;;6.88;4.78;;;;;;;15.05;55.51;100895.84;5222299;28;20069;-76
2022/04/13 06:35:20;;;;;;;16.75;10.75;;;;;;;15.07;55.11;100888.72;5257072;28;20031;-76
2022/04/13 06:37:51;;;;;;;7.18;4.53;;;;;;;15.09;55.37;100899.22;5265610;27;20397;-76
2022/04/13 06:40:21;;;;;;;8.10;2.17;;;;;;;15.14;55.10;100891.09;5253834;28;20119;-76
2022/04/13 06:42:52;;;;;;;2.85;2.65;;;;;;;15.16;55.44;100892.75;5259422;28;20067;-75
2022/04/13 06:45:23;;;;;;;1.13;1.13;;;;;;;15.15;55.30;100895.47;5233595;28;20494;-76
2022/04/13 06:47:53;;;;;;;0.60;0.60;;;;;;;15.19;55.24;100894.38;5275530;28;20115;-76
2022/04/13 06:50:24;;;;;;;0.60;0.60;;;;;;;15.17;56.15;100899.75;5261798;28;20536;-76
2022/04/13 06:52:57;;;;;;;1.92;1.73;;;;;;;15.22;56.32;100902.19;5256891;28;20040;-76
2022/04/13 06:55:31;;;;;;;3.58;2.42;;;;;;;15.16;57.14;100905.94;5259318;22;20273;-76
2022/04/13 06:58:05;;;;;;;0.98;0.77;;;;;;;15.20;55.95;100901.41;5239906;28;20055;-76
2022/04/13 07:00:35;;;;;;;1.33;1.23;;;;;;;15.26;55.78;100906.41;5259129;28;20036;-75
2022/04/13 07:03:06;;;;;;;2.08;1.25;;;;;;;15.18;57.56;100908.53;5256957;28;20040;-76
2022/04/13 07:05:37;;;;;;;1.73;1.63;;;;;;;15.23;56.44;100911.84;5225467;28;20526;-76
2022/04/13 07:08:08;;;;;;;1.15;1.05;;;;;;;15.19;58.05;100911.13;5237484;28;20071;-76
2022/04/13 07:10:38;;;;;;;1.30;1.23;;;;;;;15.13;57.90;100913.16;5213303;28;20036;-77
2022/04/13 07:13:11;;;;;;;3.35;1.48;;;;;;;15.20;58.15;100909.31;5221841;28;20044;-77
2022/04/13 07:15:41;;;;;;;3.67;1.60;;;;;;;15.24;56.75;100916.22;5230004;28;20512;-76
2022/04/13 07:18:14;;;;;;;0.40;0.40;;;;;;;15.24;57.88;100913.56;5216474;28;20035;-75
2022/04/13 07:20:45;;;;;;;1.55;1.45;;;;;;;15.26;57.18;100917.84;5213663;28;20044;-76
2022/04/13 07:23:15;;;;;;;0.52;0.52;;;;;;;15.28;57.57;100920.41;5233184;28;20378;-76
2022/04/13 07:25:46;;;;;;;1.27;1.17;;;;;;;15.35;57.44;100924.50;5247743;28;20587;-76
2022/04/13 07:28:16;;;;;;;0.82;0.82;;;;;;;15.47;56.87;100930.19;5238625;28;20033;-76
2022/04/13 07:30:47;;;;;;;0.60;0.60;;;;;;;15.43;57.24;100935.59;5214856;28;20041;-76
2022/04/13 07:33:17;;;;;;;0.73;0.73;;;;;;;15.52;56.77;100942.28;5217814;28;20024;-76
2022/04/13 07:35:48;;;;;;;0.75;0.75;;;;;;;15.47;58.70;100933.69;5230711;28;20033;-76
2022/04/13 07:38:18;;;;;;;0.75;0.75;;;;;;;15.48;58.86;100942.50;5197499;28;20082;-75
2022/04/13 07:40:49;;;;;;;0.52;0.52;;;;;;;15.49;60.17;100949.50;5233546;28;20064;-75
2022/04/13 07:43:20;;;;;;;0.68;0.60;;;;;;;15.51;60.00;100951.16;5218936;28;20024;-75
2022/04/13 07:45:50;;;;;;;0.65;0.65;;;;;;;15.52;59.21;100946.69;5220790;28;20036;-77
2022/04/13 07:48:21;;;;;;;2.75;0.68;;;;;;;15.55;60.54;100946.59;5221388;28;20032;-75
2022/04/13 07:50:51;;;;;;;0.43;0.43;;;;;;;15.59;58.55;100953.44;5218371;28;20118;-76
2022/04/13 07:53:22;;;;;;;2.15;1.65;;;;;;;15.70;59.22;100963.56;5245528;28;20034;-76
2022/04/13 07:55:52;;;;;;;1.63;0.60;;;;;;;15.51;61.66;100961.72;5223232;28;20065;-77
2022/04/13 07:58:23;;;;;;;2.00;1.77;;;;;;;15.58;60.20;100964.94;5219325;28;20111;-76
2022/04/13 08:00:53;;;;;;;1.17;1.08;;;;;;;15.65;60.46;100971.69;5234554;28;20038;-76
2022/04/13 08:03:24;;;;;;;0.20;0.20;;;;;;;15.74;60.11;100967.78;5256070;28;20060;-76
2022/04/13 08:05:54;;;;;;;0.65;0.65;;;;;;;15.70;60.46;100972.34;5231411;28;20766;-77
2022/04/13 08:08:25;;;;;;;0.30;0.30;;;;;;;15.73;60.99;100974.00;5236857;28;20044;-75
2022/04/13 08:10:55;;;;;;;0.80;0.80;;;;;;;15.54;62.57;100977.44;5253421;28;20357;-76
2022/04/13 08:13:25;;;;;;;1.10;1.10;;;;;;;15.67;61.41;100985.69;5223365;28;20034;-77
2022/04/13 08:15:56;;;;;;;1.02;1.02;;;;;;;15.74;60.54;100983.63;5248916;28;20415;-76
2022/04/13 08:18:26;;;;;;;0.43;0.43;;;;;;;15.85;59.52;100983.19;5234606;28;20032;-76
2022/04/13 08:20:59;;;;;;;0.50;0.50;;;;;;;15.88;59.41;100985.72;5230716;28;20044;-76
2022/04/13 08:23:31;;;;;;;7.23;6.60;;;;;;;15.93;60.09;100981.06;5238727;28;20036;-76
2022/04/13 08:26:02;;;;;;;4.80;2.90;;;;;;;16.05;60.11;100988.44;5234263;28;20287;-76
2022/04/13 08:28:33;;;;;;;0.80;0.80;;;;;;;16.09;59.31;100991.81;5268814;28;20033;-78
2022/04/13 08:31:09;;;;;;;0.43;0.43;;;;;;;16.16;59.38;100993.25;5255720;28;20025;-77
2022/04/13 08:33:39;;;;;;;0.60;0.60;;;;;;;16.23;59.01;100996.47;5238506;28;20050;-77
2022/04/13 08:36:10;;;;;;;1.30;1.20;;;;;;;16.20;58.33;100997.44;5249675;28;20145;-76
2022/04/13 08:38:41;;;;;;;0.95;0.95;;;;;;;16.33;58.13;101002.19;5232430;28;20033;-77
2022/04/13 08:41:18;;;;;;;1.73;1.40;;;;;;;16.26;59.26;101000.75;5216870;28;20106;-75
2022/04/13 08:43:51;;;;;;;0.90;0.90;;;;;;;16.46;58.58;100998.03;5222486;28;20284;-76
2022/04/13 08:46:24;;;;;;;1.45;1.00;;;;;;;16.38;59.56;100999.31;5216509;28;20086;-75
2022/04/13 08:48:57;;;;;;;;;;;;;;;16.46;58.72;101002.47;5239307;28;20039;-79
2022/04/13 08:51:28;;;;;;;1.23;1.10;;;;;;;16.45;59.18;100993.66;5223603;28;20006;-76
2022/04/13 08:54:10;;;;;;;3.83;1.48;;;;;;;16.53;58.60;100998.59;5247105;28;20044;-74
2022/04/13 08:56:43;;;;;;;0.65;0.52;;;;;;;16.66;58.54;100993.56;5221917;28;20504;-77
2022/04/13 08:59:14;;;;;;;2.10;1.92;;;;;;;16.70;59.98;100996.94;5240786;28;20090;-76
2022/04/13 09:02:08;;;;;;;0.73;0.73;;;;;;;16.73;58.64;100988.84;5234681;28;20334;-75
2022/04/13 09:04:43;;;;;;;0.55;0.55;;;;;;;16.78;58.29;100992.13;5248488;28;20068;-76
2022/04/13 09:07:17;;;;;;;2.20;2.05;;;;;;;16.88;58.34;101001.34;5247283;28;20044;-76
2022/04/13 09:09:53;;;;;;;0.52;0.52;;;;;;;16.91;58.29;101000.31;5236205;28;20038;-77
2022/04/13 09:12:25;;;;;;;0.68;0.68;;;;;;;16.99;57.78;101001.69;5234883;28;20517;-76
2022/04/13 09:15:02;;;;;;;1.38;1.27;;;;;;;17.02;58.95;101003.34;5221113;28;20044;-77
2022/04/13 09:17:33;;;;;;;1.13;1.13;;;;;;;17.02;58.12;101008.66;5252053;28;20504;-76
2022/04/13 09:20:06;;;;;;;0.80;0.50;;;;;;;17.01;58.43;101014.00;5260608;28;20060;-76
2022/04/13 09:22:39;;;;;;;2.47;1.42;;;;;;;17.05;57.99;101016.44;5237930;28;20036;-78
2022/04/13 09:25:11;;;;;;;1.23;1.13;;;;;;;17.13;57.98;101018.72;5235895;28;20487;-76
2022/04/13 09:27:42;;;;;;;6.60;2.70;;;;;;;17.22;58.40;101026.22;5217673;28;20040;-77
2022/04/13 09:30:15;;;;;;;0.55;0.55;;;;;;;17.08;58.90;101018.06;5217479;28;20498;-77
2022/04/13 09:32:46;;;;;;;0.70;0.70;;;;;;;17.20;57.81;101019.25;5220935;28;20040;-77
2022/04/13 09:35:18;;;;;;;1.02;1.02;;;;;;;17.25;58.07;101026.03;5233581;28;20032;-78
2022/04/13 09:37:49;;;;;;;0.43;0.43;;;;;;;17.21;58.21;101023.59;5239064;28;20539;-77
2022/04/13 09:40:46;;;;;;;1.27;0.95;;;;;;;17.34;58.05;101026.50;5234348;28;20037;-76
2022/04/13 09:43:18;;;;;;;1.08;1.08;;;;;;;17.35;57.69;101026.44;5224778;28;20048;-76
2022/04/13 09:45:51;;;;;;;1.27;1.27;;;;;;;17.35;57.59;101026.44;5235379;28;20235;-78
2022/04/13 09:48:23;;;;;;;0.40;0.40;;;;;;;17.36;57.61;101035.25;5233191;28;20039;-77
2022/04/13 09:50:57;;;;;;;1.17;0.93;;;;;;;17.39;57.51;101032.44;5232431;28;20446;-75
2022/04/13 09:53:27;;;;;;;0.98;0.98;;;;;;;17.42;57.64;101029.63;5243676;28;20082;-77
2022/04/13 09:55:59;;;;;;;2.38;1.60;;;;;;;17.53;57.36;101031.72;5234101;28;20040;-76
2022/04/13 09:58:30;;;;;;;8.10;1.92;;;;;;;17.58;57.20;101025.25;5231915;28;20029;-76
2022/04/13 10:01:02;;;;;;;0.95;0.95;;;;;;;17.59;57.78;101026.97;5265205;28;20055;-76
2022/04/13 10:03:33;;;;;;;0.57;0.57;;;;;;;17.73;56.90;101025.38;5235108;28;20412;-77
2022/04/13 10:06:04;;;;;;;0.50;0.50;;;;;;;17.75;56.92;101031.47;5209806;28;20036;-78
2022/04/13 10:08:35;;;;;;;1.40;0.65;;;;;;;17.72;57.39;101026.34;5233962;28;20024;-77
2022/04/13 10:11:07;;;;;;;0.70;0.70;;;;;;;17.76;57.38;101027.88;5213093;28;20128;-78
2022/04/13 10:13:42;;;;;;;0.88;0.75;;;;;;;17.79;57.48;101027.72;5233206;28;20021;-77
2022/04/13 10:16:14;;;;;;;1.15;0.93;;;;;;;17.94;57.02;101026.91;5212248;28;20409;-77
2022/04/13 10:18:53;;;;;;;1.65;1.55;;;;;;;17.97;57.35;101031.22;5219980;28;20020;-77
2022/04/13 10:21:51;;;;;;;1.50;1.30;;;;;;;18.03;58.06;101030.91;5224776;28;20040;-77
2022/04/13 10:24:33;;;;;;;0.50;0.50;;;;;;;18.15;57.33;101031.19;5249946;28;20037;-77
2022/04/13 10:27:03;;;;;;;1.00;1.00;;;;;;;18.35;57.25;101032.75;5250643;28;20456;-77
2022/04/13 10:29:35;;;;;;;0.93;0.93;;;;;;;18.34;56.87;101033.69;5206709;28;20037;-77
2022/04/13 10:32:06;;;;;;;1.85;1.27;;;;;;;18.32;56.96;101036.44;5230580;28;20640;-77
2022/04/13 10:34:41;;;;;;;0.47;0.47;;;;;;;18.47;56.77;101028.56;5203040;28;20454;-77
2022/04/13 10:37:14;;;;;;;5.15;0.95;;;;;;;18.50;57.50;101039.03;5232202;28;20436;-77
2022/04/13 10:39:46;;;;;;;0.30;0.30;;;;;;;18.52;56.86;101035.34;5233703;28;20291;-76
2022/04/13 10:42:18;;;;;;;1.67;1.53;;;;;;;18.55;57.09;101037.81;5232511;28;20045;-77
2022/04/13 10:44:51;;;;;;;0.45;0.45;;;;;;;18.83;56.01;101036.25;5234730;28;20048;-77
2022/04/13 10:47:34;;;;;;;0.82;0.82;;;;;;;18.80;56.35;101031.13;5248967;28;20069;-76
2022/04/13 10:50:07;;;;;;;0.63;0.63;;;;;;;18.74;56.20;101038.59;5232232;28;20048;-77
2022/04/13 10:52:50;;;;;;;1.10;1.05;;;;;;;18.77;56.47;101033.97;5233156;28;20028;-76
2022/04/13 10:55:22;;;;;;;1.33;1.05;;;;;;;18.82;56.48;101034.53;5215714;28;20031;-75
2022/04/13 10:57:59;;;;;;;1.65;1.23;;;;;;;18.84;56.24;101037.97;5238653;28;20532;-77
2022/04/13 11:00:34;;;;;;;0.68;0.65;;;;;;;18.97;56.25;101038.16;5234697;28;20522;-76
2022/04/13 11:03:05;;;;;;;1.15;1.10;;;;;;;18.95;56.43;101040.06;5231265;28;20048;-76
2022/04/13 11:05:40;;;;;;;0.90;0.85;;;;;;;19.03;56.46;101042.28;5235608;28;20587;-76
2022/04/13 11:08:32;;;;;;;2.10;0.90;;;;;;;19.06;57.06;101039.44;5236363;28;20072;-76
2022/04/13 11:11:04;;;;;;;0.85;0.65;;;;;;;19.12;55.61;101036.44;5220280;28;20040;-77
2022/04/13 11:13:35;;;;;;;0.60;0.60;;;;;;;19.12;56.00;101036.44;5245418;28;20046;-76
2022/04/13 11:16:20;;;;;;;0.30;0.30;;;;;;;19.22;55.81;101035.88;5231534;28;20044;-77
2022/04/13 11:19:06;;;;;;;2.65;1.75;;;;;;;19.21;55.07;101042.16;5232537;28;20032;-76
2022/04/13 11:22:05;;;;;;;0.77;0.77;;;;;;;19.23;55.49;101042.91;5222242;28;20041;-76
2022/04/13 11:24:41;;;;;;;1.95;1.58;;;;;;;19.26;54.96;101045.41;5215060;28;20037;-77
2022/04/13 11:27:13;;;;;;;0.93;0.93;;;;;;;19.25;55.33;101041.91;5226074;28;20181;-77
2022/04/13 11:29:56;;;;;;;0.38;0.38;;;;;;;19.36;55.67;101043.94;5202487;28;20725;-79
2022/04/13 11:32:32;;;;;;;0.45;0.45;;;;;;;19.42;55.75;101048.03;5238297;28;20086;-78
2022/04/13 11:35:04;;;;;;;14.52;1.85;;;;;;;19.43;55.44;101053.25;5226451;28;20037;-77
2022/04/13 11:37:34;;;;;;;0.80;0.80;;;;;;;19.48;54.93;101059.16;5231318;28;20040;-76
2022/04/13 11:40:10;;;;;;;0.55;0.55;;;;;;;19.41;54.74;101049.81;5216443;28;20286;-77
2022/04/13 11:42:43;;;;;;;1.95;1.30;;;;;;;19.54;55.34;101052.59;5226785;28;20029;-78
2022/04/13 11:45:15;;;;;;;3.53;1.13;;;;;;;19.61;55.10;101058.44;5258703;28;20045;-77
2022/04/13 11:47:49;;;;;;;3.03;1.40;;;;;;;19.72;54.47;101066.59;5229326;28;20040;-76
2022/04/13 11:50:33;;;;;;;0.45;0.45;;;;;;;19.81;54.11;101060.72;5197651;28;20314;-76